createdAt,value
2022-12-19T00:01:19.472Z,-2.73
2022-12-19T00:03:46.962Z,-2.73
2022-12-19T00:06:13.915Z,-2.73
2022-12-19T00:08:41.113Z,-2.72
2022-12-19T00:11:07.628Z,-2.70
2022-12-19T00:13:41.036Z,-2.65
2022-12-19T00:16:10.831Z,-2.61
2022-12-19T00:18:39.000Z,-2.63
2022-12-19T00:21:05.755Z,-2.59
2022-12-19T00:23:32.945Z,-2.61
2022-12-19T00:26:11.621Z,-2.60
2022-12-19T00:28:38.123Z,-2.61
2022-12-19T00:31:04.869Z,-2.59
2022-12-19T00:33:31.486Z,-2.60
2022-12-19T00:36:00.105Z,-2.64
2022-12-19T00:38:26.786Z,-2.66
2022-12-19T00:40:53.303Z,-2.67
2022-12-19T00:43:19.824Z,-2.63
2022-12-19T00:45:46.526Z,-2.60
2022-12-19T00:48:13.070Z,-2.59
2022-12-19T00:50:42.550Z,-2.59
2022-12-19T00:53:09.067Z,-2.53
2022-12-19T00:55:37.980Z,-2.54
2022-12-19T00:58:04.431Z,-2.55
2022-12-19T01:00:30.878Z,-2.52
2022-12-19T01:02:58.776Z,-2.51
2022-12-19T01:05:25.386Z,-2.49
2022-12-19T01:07:51.943Z,-2.50
2022-12-19T01:10:18.474Z,-2.48
2022-12-19T01:12:46.899Z,-2.47
2022-12-19T01:15:16.211Z,-2.41
2022-12-19T01:17:44.550Z,-2.43
2022-12-19T01:20:11.800Z,-2.42
2022-12-19T01:22:38.276Z,-2.38
2022-12-19T01:25:05.268Z,-2.39
2022-12-19T01:27:32.048Z,-2.40
2022-12-19T01:29:58.569Z,-2.41
2022-12-19T01:32:25.116Z,-2.41
2022-12-19T01:34:51.599Z,-2.43
2022-12-19T01:37:18.338Z,-2.42
2022-12-19T01:39:46.232Z,-2.41
2022-12-19T01:42:17.356Z,-2.39
2022-12-19T01:45:15.444Z,-2.34
2022-12-19T01:47:45.048Z,-2.26
2022-12-19T01:50:14.786Z,-2.22
2022-12-19T01:52:41.556Z,-2.22
2022-12-19T01:55:08.346Z,-2.18
2022-12-19T01:57:34.990Z,-2.21
2022-12-19T02:00:04.891Z,-2.20
2022-12-19T02:02:32.048Z,-2.18
2022-12-19T02:04:58.791Z,-2.17
2022-12-19T02:07:25.335Z,-2.14
2022-12-19T02:09:57.092Z,-2.14
2022-12-19T02:12:24.599Z,-2.14
2022-12-19T02:14:51.268Z,-2.14
2022-12-19T02:17:30.213Z,-2.17
2022-12-19T02:20:15.477Z,-2.13
2022-12-19T02:22:50.225Z,-2.11
2022-12-19T02:25:21.821Z,-2.02
2022-12-19T02:28:05.779Z,-2.00
2022-12-19T02:30:50.656Z,-1.92
2022-12-19T02:33:31.398Z,-1.87
2022-12-19T02:36:02.040Z,-1.89
2022-12-19T02:38:30.717Z,-1.88
2022-12-19T02:40:58.708Z,-1.93
2022-12-19T02:43:25.737Z,-1.88
2022-12-19T02:45:52.324Z,-1.85
2022-12-19T02:48:19.499Z,-1.88
2022-12-19T02:50:47.895Z,-1.88
2022-12-19T02:53:16.890Z,-1.84
2022-12-19T02:56:10.499Z,-1.83
2022-12-19T02:58:40.196Z,-1.85
2022-12-19T03:01:10.311Z,-1.76
2022-12-19T03:03:36.937Z,-1.72
2022-12-19T03:06:14.589Z,-1.70
2022-12-19T03:09:01.422Z,-1.63
2022-12-19T03:11:29.334Z,-1.62
2022-12-19T03:13:57.181Z,-1.61
2022-12-19T03:16:23.705Z,-1.60
2022-12-19T03:18:50.341Z,-1.56
2022-12-19T03:21:21.293Z,-1.55
2022-12-19T03:23:48.324Z,-1.54
2022-12-19T03:26:15.851Z,-1.50
2022-12-19T03:28:43.611Z,-1.48
2022-12-19T03:31:10.229Z,-1.49
2022-12-19T03:33:36.763Z,-1.46
2022-12-19T03:36:04.216Z,-1.41
2022-12-19T03:38:30.879Z,-1.38
2022-12-19T03:40:57.360Z,-1.39
2022-12-19T03:43:23.871Z,-1.33
2022-12-19T03:45:57.457Z,-1.28
2022-12-19T03:48:28.332Z,-1.28
2022-12-19T03:51:03.920Z,-1.16
2022-12-19T03:53:35.245Z,-1.17
2022-12-19T03:56:06.683Z,-1.11
2022-12-19T03:58:34.693Z,-1.09
2022-12-19T04:01:01.267Z,-1.06
2022-12-19T04:03:28.109Z,-1.06
2022-12-19T04:05:54.631Z,-1.07
2022-12-19T04:08:21.123Z,-1.02
2022-12-19T04:10:48.685Z,-0.97
2022-12-19T04:13:19.447Z,-0.94
2022-12-19T04:15:49.822Z,-0.96
2022-12-19T04:18:16.380Z,-1.00
2022-12-19T04:20:43.619Z,-0.98
2022-12-19T04:23:18.210Z,-1.02
2022-12-19T04:25:48.363Z,-1.02
2022-12-19T04:28:41.125Z,-0.97
2022-12-19T04:31:07.736Z,-0.98
2022-12-19T04:33:34.302Z,-0.94
2022-12-19T04:36:00.794Z,-0.87
2022-12-19T04:38:27.290Z,-0.87
2022-12-19T04:40:53.763Z,-0.79
2022-12-19T04:43:20.263Z,-0.82
2022-12-19T04:45:46.750Z,-0.79
2022-12-19T04:48:13.246Z,-0.77
2022-12-19T04:50:39.787Z,-0.73
2022-12-19T04:53:06.843Z,-0.72
2022-12-19T04:55:33.551Z,-0.76
2022-12-19T04:58:00.061Z,-0.72
2022-12-19T05:00:26.535Z,-0.68
2022-12-19T05:02:53.127Z,-0.64
2022-12-19T05:05:19.936Z,-0.64
2022-12-19T05:07:47.146Z,-0.64
2022-12-19T05:10:13.730Z,-0.58
2022-12-19T05:12:40.255Z,-0.59
2022-12-19T05:15:06.984Z,-0.51
2022-12-19T05:17:33.505Z,-0.44
2022-12-19T05:20:00.047Z,-0.46
2022-12-19T05:22:26.559Z,-0.38
2022-12-19T05:24:53.063Z,-0.38
2022-12-19T05:27:19.845Z,-0.32
2022-12-19T05:29:46.319Z,-0.24
2022-12-19T05:32:12.755Z,-0.22
2022-12-19T05:34:39.248Z,-0.16
2022-12-19T05:37:05.773Z,-0.05
2022-12-19T05:39:32.277Z,-0.06
2022-12-19T05:41:58.765Z,-0.15
2022-12-19T05:44:26.630Z,0.05
2022-12-19T05:46:53.287Z,-0.09
2022-12-19T05:49:19.879Z,-0.08
2022-12-19T05:51:46.734Z,-0.01
2022-12-19T05:54:13.213Z,0.09
2022-12-19T05:56:39.701Z,0.01
2022-12-19T05:59:06.580Z,-0.01
2022-12-19T06:01:33.225Z,0.02
2022-12-19T06:03:59.728Z,0.01
2022-12-19T06:06:26.524Z,0.15
2022-12-19T06:08:56.800Z,0.20
2022-12-19T06:11:23.361Z,0.18
2022-12-19T06:13:49.869Z,0.25
2022-12-19T06:16:17.523Z,0.17
2022-12-19T06:18:45.045Z,0.29
2022-12-19T06:21:14.959Z,0.40
2022-12-19T06:23:41.525Z,0.46
2022-12-19T06:26:11.101Z,0.60
2022-12-19T06:28:39.534Z,0.64
2022-12-19T06:31:06.301Z,0.51
2022-12-19T06:33:34.481Z,0.56
2022-12-19T06:36:02.038Z,0.72
2022-12-19T06:38:28.666Z,0.66
2022-12-19T06:41:13.738Z,0.85
2022-12-19T06:43:40.527Z,0.87
2022-12-19T06:46:07.163Z,1.04
2022-12-19T06:48:33.714Z,1.24
2022-12-19T06:51:00.226Z,1.22
2022-12-19T06:53:26.701Z,1.15
2022-12-19T06:55:54.092Z,1.26
2022-12-19T06:58:24.249Z,1.25
2022-12-19T07:00:51.161Z,1.27
2022-12-19T07:03:52.702Z,1.22
2022-12-19T07:06:19.176Z,1.22
2022-12-19T07:08:45.708Z,1.16
2022-12-19T07:11:12.224Z,1.10
2022-12-19T07:13:38.651Z,1.14
2022-12-19T07:16:05.567Z,1.16
2022-12-19T07:18:32.665Z,1.32
2022-12-19T07:20:59.179Z,1.20
2022-12-19T07:23:25.713Z,1.22
2022-12-19T07:26:03.380Z,1.21
2022-12-19T07:32:12.240Z,1.26
2022-12-19T07:38:12.469Z,1.25
2022-12-19T07:40:38.960Z,1.46
2022-12-19T07:43:05.959Z,1.40
2022-12-19T07:45:32.892Z,1.44
2022-12-19T07:48:02.859Z,1.44
2022-12-19T07:50:29.515Z,1.60
2022-12-19T07:52:56.216Z,1.63
2022-12-19T07:55:22.757Z,1.56
2022-12-19T07:58:17.135Z,1.60
2022-12-19T08:00:43.616Z,1.61
2022-12-19T08:03:10.213Z,2.09
2022-12-19T08:05:36.685Z,2.05
2022-12-19T08:08:03.371Z,1.94
2022-12-19T08:10:31.051Z,2.09
2022-12-19T08:12:57.496Z,2.01
2022-12-19T08:15:24.842Z,1.92
2022-12-19T08:21:18.474Z,1.78
2022-12-19T08:27:06.847Z,1.85
2022-12-19T08:33:02.306Z,1.88
2022-12-19T08:38:57.247Z,2.05
2022-12-19T08:41:24.533Z,2.05
2022-12-19T08:43:51.606Z,2.01
2022-12-19T08:46:20.140Z,2.10
2022-12-19T08:48:46.777Z,2.16
2022-12-19T08:51:13.772Z,2.20
2022-12-19T08:57:07.334Z,2.25
2022-12-19T09:02:56.386Z,2.41
2022-12-19T09:09:00.244Z,2.50
2022-12-19T09:15:33.174Z,2.65
2022-12-19T09:21:37.364Z,2.80
2022-12-19T09:24:07.936Z,2.82
2022-12-19T09:26:35.050Z,2.88
2022-12-19T09:29:02.194Z,2.93
2022-12-19T09:31:31.578Z,2.92
2022-12-19T09:33:58.063Z,2.96
2022-12-19T09:36:24.778Z,2.99
2022-12-19T09:38:53.157Z,3.02
2022-12-19T09:41:38.516Z,3.08
2022-12-19T09:47:28.328Z,3.08
2022-12-19T09:53:45.226Z,3.09
2022-12-19T10:00:01.583Z,3.18
2022-12-19T10:02:46.538Z,3.14
2022-12-19T10:06:15.507Z,3.10
2022-12-19T10:08:25.850Z,3.12
2022-12-19T10:12:46.510Z,3.17
2022-12-19T10:21:00.577Z,3.28
2022-12-19T10:23:29.294Z,3.30
2022-12-19T10:26:06.936Z,3.29
2022-12-19T10:35:50.327Z,3.16
2022-12-19T10:38:19.803Z,3.20
2022-12-19T10:46:59.419Z,3.32
2022-12-19T10:49:27.355Z,3.33
2022-12-19T10:51:58.959Z,3.32
2022-12-19T10:54:37.629Z,3.33
2022-12-19T10:57:25.761Z,3.36
2022-12-19T10:59:58.568Z,3.44
2022-12-19T11:02:44.514Z,3.32
2022-12-19T11:09:05.266Z,3.46
2022-12-19T11:20:27.031Z,3.58
2022-12-19T11:29:27.014Z,3.74
2022-12-19T11:29:27.251Z,3.87
2022-12-19T11:29:42.130Z,3.96
2022-12-19T11:33:14.277Z,4.13
2022-12-19T11:35:48.607Z,4.12
2022-12-19T11:38:15.826Z,4.06
2022-12-19T11:40:49.170Z,4.22
2022-12-19T11:43:43.582Z,4.25
2022-12-19T11:46:13.868Z,4.29
2022-12-19T11:48:47.037Z,4.41
2022-12-19T11:51:22.938Z,4.40
2022-12-19T11:53:49.428Z,4.62
2022-12-19T11:56:17.265Z,4.57
2022-12-19T11:58:49.768Z,4.62
2022-12-19T12:01:35.092Z,4.46
2022-12-19T12:04:21.468Z,4.31
2022-12-19T12:15:09.350Z,4.17
2022-12-19T12:22:04.248Z,4.19
2022-12-19T12:25:53.285Z,4.10
2022-12-19T12:31:14.028Z,4.10
2022-12-19T12:31:18.627Z,4.21
2022-12-19T12:31:44.604Z,4.29
2022-12-19T12:31:50.280Z,4.32
2022-12-19T12:32:03.192Z,4.43
2022-12-19T12:35:51.084Z,4.48
2022-12-19T12:38:51.875Z,4.45
2022-12-19T12:41:57.093Z,4.38
2022-12-19T12:47:51.750Z,4.23
2022-12-19T12:53:50.503Z,4.03
2022-12-19T12:59:51.553Z,3.93
2022-12-19T13:05:47.438Z,3.92
2022-12-19T13:08:32.880Z,3.90
2022-12-19T13:25:27.498Z,4.05
2022-12-19T13:31:43.467Z,4.00
2022-12-19T13:39:48.862Z,3.87
2022-12-19T13:43:57.484Z,3.89
2022-12-19T13:53:26.707Z,3.75
2022-12-19T13:59:22.758Z,3.89
2022-12-19T14:01:49.327Z,3.77
2022-12-19T14:04:21.849Z,3.67
2022-12-19T14:06:48.397Z,3.69
2022-12-19T14:11:27.060Z,3.69
2022-12-19T14:13:47.314Z,3.63
2022-12-19T14:22:07.802Z,3.46
2022-12-19T14:24:17.710Z,3.40
2022-12-19T14:28:20.805Z,3.36
2022-12-19T14:30:27.494Z,3.32
2022-12-19T14:33:44.841Z,3.22
2022-12-19T14:39:24.087Z,3.19
2022-12-19T14:54:03.377Z,3.07
2022-12-19T14:54:28.278Z,3.14
2022-12-19T14:57:50.693Z,3.12
2022-12-19T15:01:07.070Z,3.14
2022-12-19T15:07:08.076Z,3.20
2022-12-19T15:19:38.535Z,2.99
2022-12-19T15:26:02.926Z,3.00
2022-12-19T15:28:20.325Z,3.00
2022-12-19T15:30:50.029Z,3.09
2022-12-19T15:36:51.214Z,3.27
2022-12-19T15:42:39.547Z,3.25
2022-12-19T15:48:28.233Z,3.32
2022-12-19T15:50:54.789Z,3.57
2022-12-19T15:53:32.807Z,3.55
2022-12-19T15:56:01.344Z,3.57
2022-12-19T15:58:28.275Z,3.57
2022-12-19T16:00:56.180Z,3.75
2022-12-19T16:03:25.111Z,3.75
2022-12-19T16:05:52.553Z,3.71
2022-12-19T16:08:20.420Z,3.77
2022-12-19T16:10:48.240Z,3.81
2022-12-19T16:13:16.889Z,3.84
2022-12-19T16:15:43.584Z,3.81
2022-12-19T16:21:50.973Z,3.85
2022-12-19T16:27:55.192Z,3.98
2022-12-19T16:30:22.664Z,4.05
2022-12-19T16:32:49.633Z,4.18
2022-12-19T16:35:34.218Z,4.20
2022-12-19T16:38:04.281Z,4.09
2022-12-19T16:40:43.726Z,4.27
2022-12-19T16:46:50.558Z,4.40
2022-12-19T16:49:22.875Z,4.28
2022-12-19T16:51:49.863Z,4.41
2022-12-19T16:54:16.847Z,4.47
2022-12-19T16:56:43.950Z,4.44
2022-12-19T16:59:13.143Z,4.39
2022-12-19T17:01:39.976Z,4.45
2022-12-19T17:04:06.631Z,4.76
2022-12-19T17:06:43.672Z,4.82
2022-12-19T17:09:17.280Z,4.82
2022-12-19T17:11:50.855Z,4.79
2022-12-19T17:14:25.313Z,4.74
2022-12-19T17:16:54.075Z,4.70
2022-12-19T17:23:07.521Z,4.77
2022-12-19T17:25:34.071Z,4.82
2022-12-19T17:28:00.540Z,4.85
2022-12-19T17:30:27.207Z,4.94
2022-12-19T17:32:55.042Z,4.79
2022-12-19T17:38:46.443Z,4.88
2022-12-19T17:41:13.979Z,4.98
2022-12-19T17:43:40.504Z,4.94
2022-12-19T17:46:09.712Z,5.12
2022-12-19T17:48:36.281Z,5.04
2022-12-19T17:54:30.733Z,4.90
2022-12-19T17:56:57.234Z,4.72
2022-12-19T17:59:23.687Z,4.65
2022-12-19T18:01:50.383Z,4.76
2022-12-19T18:04:17.996Z,4.71
2022-12-19T18:06:45.018Z,4.74
2022-12-19T18:09:20.539Z,4.82
2022-12-19T18:15:18.067Z,4.90
2022-12-19T18:17:44.740Z,4.86
2022-12-19T18:20:15.577Z,4.80
2022-12-19T18:22:42.839Z,4.76
2022-12-19T18:28:37.909Z,4.68
2022-12-19T18:31:10.166Z,4.79
2022-12-19T18:33:38.210Z,4.63
2022-12-19T18:36:05.228Z,4.60
2022-12-19T18:38:31.745Z,4.79
2022-12-19T18:40:58.260Z,4.78
2022-12-19T18:43:24.799Z,4.70
2022-12-19T18:45:51.910Z,4.65
2022-12-19T18:48:25.947Z,4.61
2022-12-19T18:50:52.971Z,4.62
2022-12-19T18:53:21.771Z,4.67
2022-12-19T18:55:48.319Z,4.72
2022-12-19T18:58:15.478Z,4.69
2022-12-19T19:04:07.300Z,4.78
2022-12-19T19:10:09.042Z,5.05
2022-12-19T19:12:35.489Z,5.04
2022-12-19T19:15:02.676Z,4.98
2022-12-19T19:17:29.352Z,4.96
2022-12-19T19:19:55.821Z,4.96
2022-12-19T19:22:22.344Z,5.03
2022-12-19T19:24:48.850Z,5.08
2022-12-19T19:27:15.416Z,5.11
2022-12-19T19:29:41.869Z,4.98
2022-12-19T19:32:08.362Z,4.89
2022-12-19T19:34:35.772Z,4.90
2022-12-19T19:37:03.784Z,5.02
2022-12-19T19:39:31.132Z,5.09
2022-12-19T19:41:57.711Z,5.21
2022-12-19T19:44:24.223Z,5.18
2022-12-19T19:46:51.376Z,5.17
2022-12-19T19:49:18.118Z,5.27
2022-12-19T19:51:44.637Z,5.53
2022-12-19T19:54:11.140Z,5.48
2022-12-19T19:56:37.797Z,5.43
2022-12-19T19:59:04.599Z,5.55
2022-12-19T20:01:31.166Z,5.52
2022-12-19T20:03:57.768Z,5.54
2022-12-19T20:06:24.328Z,5.62
2022-12-19T20:08:50.790Z,5.60
2022-12-19T20:11:17.545Z,5.64
2022-12-19T20:13:44.076Z,5.62
2022-12-19T20:16:11.815Z,5.66
2022-12-19T20:18:39.927Z,5.67
2022-12-19T20:21:13.007Z,5.76
2022-12-19T20:24:08.801Z,5.98
2022-12-19T20:30:03.545Z,5.77
2022-12-19T20:35:57.959Z,5.53
2022-12-19T20:42:25.496Z,5.38
2022-12-19T20:48:27.662Z,5.51
2022-12-19T20:54:27.702Z,5.44
2022-12-19T21:00:23.768Z,5.48
2022-12-19T21:06:48.720Z,5.57
2022-12-19T21:09:15.197Z,5.62
2022-12-19T21:11:41.701Z,5.71
2022-12-19T21:14:08.297Z,5.64
2022-12-19T21:19:56.617Z,5.61
2022-12-19T21:25:53.124Z,5.76
2022-12-19T21:31:53.714Z,5.89
2022-12-19T21:37:51.899Z,5.94
2022-12-19T21:40:19.030Z,5.98
2022-12-19T21:42:45.567Z,6.03
2022-12-19T21:45:12.486Z,6.09
2022-12-19T21:47:40.219Z,6.10
2022-12-19T21:50:08.233Z,5.99
2022-12-19T21:52:34.908Z,5.82
2022-12-19T21:58:32.693Z,5.68
2022-12-19T22:01:09.568Z,5.76
2022-12-19T22:07:17.549Z,5.87
2022-12-19T22:13:57.569Z,5.76
2022-12-19T22:16:24.263Z,5.68
2022-12-19T22:18:52.916Z,5.81
2022-12-19T22:21:19.853Z,5.73
2022-12-19T22:23:51.266Z,5.80
2022-12-19T22:29:46.975Z,5.77
2022-12-19T22:35:36.056Z,5.73
2022-12-19T22:38:02.766Z,5.72
2022-12-19T22:40:29.422Z,5.72
2022-12-19T22:42:58.791Z,5.74
2022-12-19T22:45:25.718Z,5.83
2022-12-19T22:47:52.266Z,5.89
2022-12-19T22:50:18.743Z,5.82
2022-12-19T22:52:45.359Z,5.82
2022-12-19T22:55:11.924Z,5.82
2022-12-19T22:57:41.804Z,5.78
2022-12-19T23:03:37.866Z,5.83
2022-12-19T23:06:04.574Z,5.79
2022-12-19T23:08:31.111Z,5.74
2022-12-19T23:11:28.637Z,5.67
2022-12-19T23:21:36.559Z,5.81
2022-12-19T23:31:40.817Z,5.78
